Time;durP1;ratioP1;P1;durP2;ratioP2;P2;SDS_P1;SDS_P2;PMS_P1;PMS_P2;Temp;Humidity;BMP_temperature;BMP_pressure;BME280_temperature;BME280_humidity;BME280_pressure;Samples;Min_cycle;Max_cycle;Signal;HPM_P1;HPM_P2
2023/05/19 00:02:24;;;;;;;6.22;3.13;;;;;;;12.81;46.36;100931.63;5049036;28;20108;-79
2023/05/19 00:04:51;;;;;;;6.78;3.33;;;;;;;12.79;46.21;100937.94;5050794;28;20049;-79
2023/05/19 00:07:22;;;;;;;7.10;3.20;;;;;;;12.78;46.70;100934.41;5053335;28;20118;-79
2023/05/19 00:09:49;;;;;;;7.30;3.15;;;;;;;12.77;46.49;100932.72;5051107;28;20057;-79
2023/05/19 00:12:16;;;;;;;9.73;3.60;;;;;;;12.76;46.44;100931.84;5034021;28;20087;-79
2023/05/19 00:14:43;;;;;;;7.50;3.95;;;;;;;12.74;46.53;100928.44;5032633;28;20065;-79
2023/05/19 00:17:10;;;;;;;6.15;3.17;;;;;;;12.74;46.56;100924.91;5033329;28;20061;-79
2023/05/19 00:19:36;;;;;;;9.60;3.25;;;;;;;12.71;46.54;100925.91;5032884;28;20065;-79
2023/05/19 00:22:04;;;;;;;6.55;3.08;;;;;;;12.71;46.78;100933.00;5033881;28;20053;-79
2023/05/19 00:24:30;;;;;;;6.32;2.90;;;;;;;12.69;46.64;100933.06;5033945;28;20049;-79
2023/05/19 00:26:57;;;;;;;5.38;3.08;;;;;;;12.68;46.57;100933.16;5033039;28;20068;-79
2023/05/19 00:29:24;;;;;;;7.35;3.60;;;;;;;12.67;46.64;100936.72;5032606;28;20144;-79
2023/05/19 00:31:50;;;;;;;4.57;3.35;;;;;;;12.64;46.47;100932.44;5047208;28;20049;-79
2023/05/19 00:34:17;;;;;;;8.82;2.95;;;;;;;12.62;46.77;100931.66;5052415;28;20464;-79
2023/05/19 00:36:43;;;;;;;8.20;3.53;;;;;;;12.60;46.80;100931.72;5052812;28;20057;-79
2023/05/19 00:39:10;;;;;;;9.95;3.00;;;;;;;12.58;46.77;100924.78;5045579;28;20063;-79
2023/05/19 00:41:37;;;;;;;5.22;3.42;;;;;;;12.57;46.67;100923.09;5053082;28;20053;-79
2023/05/19 00:44:03;;;;;;;8.70;3.40;;;;;;;12.56;46.81;100921.38;5053502;28;20445;-79
2023/05/19 00:46:30;;;;;;;7.20;3.55;;;;;;;12.55;46.59;100920.50;5052767;28;20585;-79
2023/05/19 00:48:57;;;;;;;10.77;3.67;;;;;;;12.51;46.88;100917.16;5051759;28;20067;-79
2023/05/19 00:54:16;;;;;;;9.52;3.90;;;;;;;12.47;46.90;100920.00;5066444;22;20527;-75
2023/05/19 00:56:42;;;;;;;8.38;4.18;;;;;;;12.42;47.11;100922.00;5052058;28;20088;-76
2023/05/19 00:59:09;;;;;;;11.23;3.63;;;;;;;12.36;47.22;100913.44;5052838;28;20049;-75
2023/05/19 01:01:35;;;;;;;10.68;4.10;;;;;;;12.33;47.47;100910.94;5053241;28;20063;-75
2023/05/19 01:04:03;;;;;;;8.30;3.47;;;;;;;12.31;47.50;100918.09;5052963;28;20060;-75
2023/05/19 01:06:29;;;;;;;8.60;3.63;;;;;;;12.29;47.30;100914.66;5051806;28;20045;-75
2023/05/19 01:08:56;;;;;;;9.88;3.70;;;;;;;12.29;47.42;100919.09;5051796;28;20053;-76
2023/05/19 01:11:23;;;;;;;6.85;3.65;;;;;;;12.28;47.45;100915.59;5044290;28;20811;-76
2023/05/19 01:13:50;;;;;;;10.23;3.47;;;;;;;12.26;47.42;100920.06;5050826;28;20132;-76
2023/05/19 01:16:47;;;;;;;8.20;3.97;;;;;;;12.19;48.29;100914.19;5052395;28;20049;-77
2023/05/19 01:19:24;;;;;;;8.75;3.70;;;;;;;12.15;48.08;100911.78;5032657;28;20057;-76
2023/05/19 01:22:21;;;;;;;8.55;4.22;;;;;;;12.06;48.08;100902.47;5031340;28;20475;-77
2023/05/19 01:25:03;;;;;;;5.55;3.63;;;;;;;11.99;48.17;100908.03;5032337;28;20061;-77
2023/05/19 01:27:48;;;;;;;8.23;3.65;;;;;;;11.92;48.27;100908.38;5032198;28;20477;-77
2023/05/19 01:30:36;;;;;;;6.32;3.45;;;;;;;11.85;48.42;100905.97;5032112;28;20461;-77
2023/05/19 01:33:07;;;;;;;7.13;3.85;;;;;;;11.84;47.97;100901.63;5032798;28;20059;-77
2023/05/19 01:35:36;;;;;;;11.57;4.15;;;;;;;11.79;48.10;100906.25;5031973;28;20065;-76
2023/05/19 01:38:06;;;;;;;10.63;4.18;;;;;;;11.75;47.72;100894.13;5032608;28;20145;-75
2023/05/19 01:40:34;;;;;;;8.13;4.00;;;;;;;11.71;47.68;100905.75;5051966;28;20481;-76
2023/05/19 01:43:01;;;;;;;9.65;3.58;;;;;;;11.66;47.89;100907.72;5052522;28;20060;-76
2023/05/19 01:45:30;;;;;;;8.38;3.83;;;;;;;11.60;48.03;100906.19;5050481;28;20080;-77
2023/05/19 01:48:01;;;;;;;6.10;3.80;;;;;;;11.55;48.74;100908.19;5052124;28;20057;-76
2023/05/19 01:50:29;;;;;;;7.68;4.00;;;;;;;11.50;48.12;100900.44;5050817;28;20493;-76
2023/05/19 01:52:56;;;;;;;8.93;4.00;;;;;;;11.47;48.12;100908.47;5051875;28;20543;-76
2023/05/19 01:55:23;;;;;;;4.68;3.47;;;;;;;11.44;48.33;100906.00;5051315;28;20067;-77
2023/05/19 01:58:21;;;;;;;7.93;3.63;;;;;;;11.39;49.50;100915.84;5051655;28;20053;-77
2023/05/19 02:00:55;;;;;;;6.43;4.00;;;;;;;11.39;48.28;100914.09;5051803;28;20057;-77
2023/05/19 02:03:25;;;;;;;6.38;3.88;;;;;;;11.37;48.16;100913.31;5050866;28;20564;-76
2023/05/19 02:06:00;;;;;;;8.00;4.20;;;;;;;11.31;49.55;100917.06;5051511;28;20065;-77
2023/05/19 02:08:40;;;;;;;7.78;3.92;;;;;;;11.29;49.52;100915.41;5050159;28;20099;-76
2023/05/19 02:11:15;;;;;;;8.48;4.07;;;;;;;11.26;49.44;100929.56;5051871;28;20077;-75
2023/05/19 02:13:43;;;;;;;9.00;4.18;;;;;;;11.23;48.71;100924.41;5050705;28;20056;-76
2023/05/19 02:16:12;;;;;;;10.10;4.55;;;;;;;11.20;48.55;100912.22;5049574;28;20063;-76
2023/05/19 02:18:39;;;;;;;7.82;4.32;;;;;;;11.17;48.75;100927.28;5050894;28;20055;-76
2023/05/19 02:21:06;;;;;;;8.95;4.20;;;;;;;11.14;48.84;100919.53;5050999;28;20565;-76
2023/05/19 02:23:32;;;;;;;11.70;4.20;;;;;;;11.12;48.98;100918.72;5051452;28;20053;-76
2023/05/19 02:25:59;;;;;;;10.25;4.00;;;;;;;11.08;49.02;100915.34;5049921;28;20053;-76
2023/05/19 02:28:27;;;;;;;9.80;4.85;;;;;;;11.07;48.97;100917.13;5043222;28;20452;-77
2023/05/19 02:30:53;;;;;;;7.65;4.28;;;;;;;11.07;49.41;100919.75;5035854;28;20049;-76
2023/05/19 02:33:23;;;;;;;7.25;4.22;;;;;;;11.07;49.41;100909.22;5047801;28;20068;-77
2023/05/19 02:35:50;;;;;;;11.68;4.43;;;;;;;11.07;49.54;100909.22;5050520;28;20060;-76
2023/05/19 02:38:16;;;;;;;9.32;4.38;;;;;;;11.07;49.34;100911.00;5042658;28;20129;-77
2023/05/19 02:40:43;;;;;;;9.68;4.85;;;;;;;11.07;49.50;100903.94;5045750;28;20057;-76
2023/05/19 02:43:10;;;;;;;7.47;4.80;;;;;;;11.07;49.78;100914.47;5050710;28;20110;-76
2023/05/19 02:45:36;;;;;;;9.18;4.70;;;;;;;11.07;49.45;100909.22;5050420;28;20049;-76
2023/05/19 02:48:03;;;;;;;9.10;4.43;;;;;;;11.05;49.87;100903.16;5045722;28;20497;-76
2023/05/19 02:50:30;;;;;;;8.50;4.20;;;;;;;11.06;49.70;100910.16;5029738;28;20457;-76
2023/05/19 02:52:56;;;;;;;10.88;5.30;;;;;;;11.05;49.82;100900.53;5030916;28;20068;-76
2023/05/19 02:55:23;;;;;;;12.63;4.57;;;;;;;11.05;49.89;100891.75;5013190;28;20542;-76
2023/05/19 02:57:50;;;;;;;10.95;4.30;;;;;;;11.05;49.68;100905.81;5030309;28;20139;-76
2023/05/19 03:00:16;;;;;;;8.10;4.60;;;;;;;11.05;49.69;100902.28;5031205;28;20058;-77
2023/05/19 03:02:43;;;;;;;10.07;4.68;;;;;;;11.05;50.17;100900.53;5030485;28;20486;-77
2023/05/19 03:05:10;;;;;;;12.02;4.95;;;;;;;11.07;49.71;100903.09;5030554;28;20058;-77
2023/05/19 03:07:36;;;;;;;9.18;4.22;;;;;;;11.05;50.02;100895.25;5030176;28;20057;-76
2023/05/19 03:10:05;;;;;;;8.93;4.53;;;;;;;11.06;49.86;100896.97;5030884;28;20053;-76
2023/05/19 03:12:32;;;;;;;12.80;5.00;;;;;;;11.04;49.97;100890.91;5030477;28;20060;-77
2023/05/19 03:14:59;;;;;;;7.55;4.85;;;;;;;11.05;50.11;100887.34;5030506;28;20100;-77
2023/05/19 03:17:27;;;;;;;9.25;4.63;;;;;;;11.03;49.88;100880.44;5030156;28;20088;-77
2023/05/19 03:19:54;;;;;;;8.02;4.57;;;;;;;11.01;49.63;100885.75;5013179;28;20422;-76
2023/05/19 03:22:21;;;;;;;9.38;4.60;;;;;;;11.00;49.73;100889.31;5030700;28;20053;-77
2023/05/19 03:24:49;;;;;;;6.90;4.90;;;;;;;10.97;49.94;100885.94;5030011;28;20708;-77
2023/05/19 03:27:16;;;;;;;7.97;4.22;;;;;;;10.91;49.89;100882.63;5030060;28;20152;-77
2023/05/19 03:29:43;;;;;;;12.43;5.32;;;;;;;10.88;50.00;100888.03;5030715;28;20057;-77
2023/05/19 03:32:09;;;;;;;9.45;5.20;;;;;;;10.85;50.01;100887.28;5030362;28;20449;-76
2023/05/19 03:34:36;;;;;;;9.95;4.43;;;;;;;10.81;50.03;100884.78;5030079;28;20481;-77
2023/05/19 03:37:03;;;;;;;8.85;4.93;;;;;;;10.80;50.19;100887.47;5029514;28;20108;-77
2023/05/19 03:39:29;;;;;;;10.10;4.85;;;;;;;10.78;50.17;100886.69;5030057;28;20061;-77
2023/05/19 03:41:56;;;;;;;10.45;4.90;;;;;;;10.76;50.09;100884.09;5030567;28;20168;-77
2023/05/19 03:44:22;;;;;;;10.95;5.15;;;;;;;10.72;50.19;100887.78;5030329;28;20046;-76
2023/05/19 03:46:49;;;;;;;9.55;4.38;;;;;;;10.71;50.35;100890.47;5012120;28;20506;-76
2023/05/19 03:49:17;;;;;;;6.35;4.60;;;;;;;10.67;50.28;100895.00;5030349;28;20049;-76
2023/05/19 03:51:43;;;;;;;6.00;4.60;;;;;;;10.66;50.52;100888.88;5030282;28;20072;-76
2023/05/19 03:54:10;;;;;;;9.27;4.70;;;;;;;10.65;50.54;100891.59;5030117;28;20529;-76
2023/05/19 03:56:38;;;;;;;7.55;4.53;;;;;;;10.62;51.14;100892.53;5012171;28;20050;-76
2023/05/19 03:59:06;;;;;;;9.13;3.97;;;;;;;10.64;50.58;100889.84;5030184;28;20080;-76
2023/05/19 04:01:32;;;;;;;10.13;4.40;;;;;;;10.64;50.29;100895.13;5030087;28;20069;-77
2023/05/19 04:03:59;;;;;;;10.10;4.72;;;;;;;10.63;50.59;100889.00;5029979;28;20833;-77
2023/05/19 04:06:25;;;;;;;9.00;4.43;;;;;;;10.63;50.79;100891.66;5012265;28;20085;-77
2023/05/19 04:08:52;;;;;;;7.93;4.38;;;;;;;10.65;50.63;100891.59;5029296;28;20472;-77
2023/05/19 04:11:19;;;;;;;10.18;5.07;;;;;;;10.66;50.63;100898.56;5012502;28;20141;-76
2023/05/19 04:13:45;;;;;;;6.93;4.40;;;;;;;10.66;50.74;100895.94;5030443;28;20057;-77
2023/05/19 04:16:12;;;;;;;7.10;4.35;;;;;;;10.66;50.88;100901.19;5029538;28;20050;-76
2023/05/19 04:18:39;;;;;;;6.13;4.30;;;;;;;10.66;50.55;100901.19;5029982;28;20057;-76
2023/05/19 04:21:07;;;;;;;13.35;4.50;;;;;;;10.66;50.80;100899.41;5012104;28;20061;-76
2023/05/19 04:23:34;;;;;;;8.10;4.40;;;;;;;10.67;50.90;100902.91;5029952;28;20053;-77
2023/05/19 04:26:01;;;;;;;7.63;4.25;;;;;;;10.67;50.73;100900.28;5029463;28;20050;-76
2023/05/19 04:28:28;;;;;;;9.38;4.18;;;;;;;10.66;50.88;100907.31;5029736;28;20148;-76
2023/05/19 04:30:57;;;;;;;9.68;4.07;;;;;;;10.65;50.87;100905.59;5028896;28;20421;-77
2023/05/19 04:33:24;;;;;;;11.10;4.43;;;;;;;10.66;51.12;100903.84;5029225;28;20076;-77
2023/05/19 04:35:50;;;;;;;6.57;3.97;;;;;;;10.67;50.96;100914.31;5028407;28;20108;-77
2023/05/19 04:38:18;;;;;;;7.40;3.67;;;;;;;10.68;50.87;100904.63;5029326;28;20509;-77
2023/05/19 04:40:45;;;;;;;11.20;3.92;;;;;;;10.69;51.04;100904.56;5025785;28;20065;-77
2023/05/19 04:43:11;;;;;;;7.85;3.45;;;;;;;10.71;51.19;100906.28;5029788;28;20053;-77
2023/05/19 04:45:41;;;;;;;11.35;4.18;;;;;;;10.73;51.31;100904.44;5011164;28;20061;-76
2023/05/19 04:48:07;;;;;;;7.30;3.58;;;;;;;10.77;51.26;100898.16;5029355;28;20065;-77
2023/05/19 04:50:37;;;;;;;9.75;4.10;;;;;;;10.80;51.23;100900.63;5032251;28;20049;-76
2023/05/19 04:53:03;;;;;;;7.43;3.80;;;;;;;10.82;51.28;100899.69;5033220;28;20069;-76
2023/05/19 04:55:31;;;;;;;8.27;3.38;;;;;;;10.85;51.23;100903.09;5032688;28;20144;-76
2023/05/19 04:57:58;;;;;;;8.98;3.67;;;;;;;10.88;51.20;100905.63;5033158;28;20059;-76
2023/05/19 05:00:24;;;;;;;7.53;3.60;;;;;;;10.90;51.07;100911.66;5032898;28;20087;-76
2023/05/19 05:02:51;;;;;;;7.32;3.30;;;;;;;10.92;50.89;100909.84;5033020;28;20083;-77
2023/05/19 05:05:17;;;;;;;8.68;3.35;;;;;;;10.94;51.06;100911.50;5032972;28;20088;-78
2023/05/19 05:07:44;;;;;;;7.70;3.50;;;;;;;10.96;51.18;100903.53;5032505;28;20057;-77
2023/05/19 05:10:11;;;;;;;12.02;4.00;;;;;;;11.00;51.21;100904.25;5015485;28;20057;-76
2023/05/19 05:12:38;;;;;;;8.43;3.25;;;;;;;11.02;51.38;100908.56;5032901;28;20061;-77
2023/05/19 05:15:05;;;;;;;9.77;3.65;;;;;;;11.05;51.33;100908.44;5032549;28;20057;-77
2023/05/19 05:17:34;;;;;;;7.00;3.47;;;;;;;11.11;51.39;100909.97;5030726;28;20147;-78
2023/05/19 05:20:03;;;;;;;8.25;3.67;;;;;;;11.15;51.28;100910.69;5032604;28;20053;-76
2023/05/19 05:22:30;;;;;;;9.00;3.60;;;;;;;11.20;51.31;100908.72;5014567;28;20552;-76
2023/05/19 05:24:57;;;;;;;8.38;3.35;;;;;;;11.24;51.56;100915.56;5014720;28;20121;-77
2023/05/19 05:27:23;;;;;;;8.38;3.28;;;;;;;11.31;51.28;100913.53;5032079;28;20053;-77
2023/05/19 05:29:51;;;;;;;10.18;3.65;;;;;;;11.36;51.52;100914.22;5032659;28;20450;-76
2023/05/19 05:32:18;;;;;;;8.90;3.88;;;;;;;11.43;51.25;100912.16;5030955;28;20069;-76
2023/05/19 05:34:44;;;;;;;11.75;3.53;;;;;;;11.48;51.96;100904.94;5030324;28;20061;-77
2023/05/19 05:37:11;;;;;;;7.18;3.45;;;;;;;11.54;51.32;100915.22;5030855;28;20053;-77
2023/05/19 05:39:40;;;;;;;8.73;3.60;;;;;;;11.60;51.21;100906.19;5037114;28;20573;-77
2023/05/19 05:42:10;;;;;;;8.73;3.80;;;;;;;11.65;51.33;100904.22;5014365;28;20082;-76
2023/05/19 05:44:36;;;;;;;7.38;3.92;;;;;;;11.72;51.19;100904.81;5032225;28;20057;-76
2023/05/19 05:47:03;;;;;;;10.38;3.72;;;;;;;11.78;51.23;100903.69;5030591;28;20057;-76
2023/05/19 05:49:30;;;;;;;9.10;3.83;;;;;;;11.84;51.39;100899.00;5032492;28;20103;-76
2023/05/19 05:51:57;;;;;;;8.10;3.17;;;;;;;11.92;51.26;100900.44;5032270;28;20065;-76
2023/05/19 05:54:32;;;;;;;10.55;3.50;;;;;;;11.98;50.99;100895.75;5028588;28;20110;-76
2023/05/19 05:56:58;;;;;;;8.45;3.63;;;;;;;12.05;50.90;100903.38;5031482;28;20107;-76
2023/05/19 05:59:25;;;;;;;9.00;3.80;;;;;;;12.10;50.94;100904.94;5031813;28;20064;-76
2023/05/19 06:01:51;;;;;;;11.48;3.67;;;;;;;12.17;50.94;100909.91;5034698;28;20076;-76
2023/05/19 06:04:19;;;;;;;8.70;4.15;;;;;;;12.24;50.75;100900.81;5044082;28;20079;-76
2023/05/19 06:06:46;;;;;;;9.10;3.80;;;;;;;12.29;50.97;100904.09;5050817;28;20057;-76
2023/05/19 06:09:13;;;;;;;9.07;3.85;;;;;;;12.36;50.93;100908.16;5050796;28;20048;-77
2023/05/19 06:11:39;;;;;;;6.78;3.35;;;;;;;12.42;51.01;100899.13;5033155;28;20053;-76
2023/05/19 06:14:06;;;;;;;8.07;3.80;;;;;;;12.49;51.23;100905.81;5031881;28;20084;-77
2023/05/19 06:16:32;;;;;;;11.05;4.60;;;;;;;12.56;51.12;100909.00;5031474;28;20091;-79
2023/05/19 06:18:59;;;;;;;13.13;4.55;;;;;;;12.62;50.98;100908.75;5031614;28;20053;-78
2023/05/19 06:21:26;;;;;;;6.50;3.67;;;;;;;12.68;50.91;100904.97;5031772;28;20061;-77
2023/05/19 06:23:53;;;;;;;9.30;4.47;;;;;;;12.75;50.75;100905.53;5031530;28;20060;-76
2023/05/19 06:26:19;;;;;;;10.50;4.50;;;;;;;12.81;50.81;100907.84;5051664;28;20072;-76
2023/05/19 06:28:46;;;;;;;8.00;3.97;;;;;;;12.87;50.69;100902.25;5049675;28;20409;-78
2023/05/19 06:31:12;;;;;;;7.40;3.97;;;;;;;12.96;50.44;100900.09;5031876;28;20049;-78
2023/05/19 06:33:39;;;;;;;6.20;3.88;;;;;;;13.01;50.33;100904.25;5031508;28;20053;-77
2023/05/19 06:36:08;;;;;;;10.95;4.10;;;;;;;13.06;50.31;100896.09;5038349;28;20061;-77
2023/05/19 06:38:35;;;;;;;8.98;4.20;;;;;;;13.12;50.58;100897.59;5060022;28;20049;-76
2023/05/19 06:41:01;;;;;;;7.90;4.22;;;;;;;13.18;50.31;100899.91;5052673;28;20080;-77
2023/05/19 06:43:29;;;;;;;8.73;4.05;;;;;;;13.23;50.28;100897.06;5051049;28;20045;-77
2023/05/19 06:45:55;;;;;;;12.30;4.10;;;;;;;13.28;50.31;100900.31;5030502;28;20088;-76
2023/05/19 06:48:22;;;;;;;8.32;3.90;;;;;;;13.33;50.07;100900.94;5029580;28;20414;-76
2023/05/19 06:50:49;;;;;;;12.35;4.22;;;;;;;13.39;50.03;100905.91;5030824;28;20045;-75
2023/05/19 06:53:18;;;;;;;6.22;3.70;;;;;;;13.45;50.06;100914.50;5070469;22;20503;-77
2023/05/19 06:55:45;;;;;;;9.02;4.18;;;;;;;13.52;50.09;100907.97;5048905;28;20140;-77
2023/05/19 06:58:25;;;;;;;8.82;4.03;;;;;;;13.57;50.05;100905.09;5050020;28;20060;-77
2023/05/19 07:00:52;;;;;;;7.68;3.67;;;;;;;13.63;50.20;100907.41;5052302;28;20131;-77
2023/05/19 07:03:19;;;;;;;9.18;3.67;;;;;;;13.67;50.08;100904.56;5041964;28;20049;-77
2023/05/19 07:05:46;;;;;;;8.68;3.80;;;;;;;13.74;50.22;100905.09;5036602;28;20057;-77
2023/05/19 07:08:12;;;;;;;8.98;3.72;;;;;;;13.81;50.00;100898.53;5050072;28;20095;-77
2023/05/19 07:10:39;;;;;;;6.47;3.47;;;;;;;13.89;49.95;100906.06;5050296;28;20080;-77
2023/05/19 07:13:05;;;;;;;8.18;3.70;;;;;;;13.94;50.04;100906.69;5037283;28;20069;-77
2023/05/19 07:15:32;;;;;;;10.32;4.43;;;;;;;14.00;50.07;100907.28;5030080;28;20053;-77
2023/05/19 07:17:59;;;;;;;7.63;3.58;;;;;;;14.07;50.07;100904.25;5037523;28;20064;-77
2023/05/19 07:20:25;;;;;;;9.63;4.13;;;;;;;14.15;50.04;100903.84;5046274;28;20090;-78
2023/05/19 07:22:52;;;;;;;8.88;4.03;;;;;;;14.25;50.21;100903.34;5039053;28;20057;-77
2023/05/19 07:25:19;;;;;;;9.43;4.10;;;;;;;14.32;50.21;100907.38;5029904;28;20103;-77
2023/05/19 07:27:46;;;;;;;13.05;3.95;;;;;;;14.40;50.11;100894.56;5030313;28;20061;-77
2023/05/19 07:30:12;;;;;;;10.18;3.97;;;;;;;14.50;50.12;100891.41;5030915;28;20053;-78
2023/05/19 07:32:39;;;;;;;8.48;3.58;;;;;;;14.58;50.00;100895.31;5030430;28;20053;-77
2023/05/19 07:35:06;;;;;;;9.18;4.50;;;;;;;14.68;49.91;100893.03;5029270;28;20112;-77
2023/05/19 07:37:33;;;;;;;9.07;3.85;;;;;;;14.77;49.81;100890.81;5029815;28;20399;-77
2023/05/19 07:39:59;;;;;;;8.02;3.40;;;;;;;14.87;49.74;100894.66;5030608;28;20112;-77
2023/05/19 07:42:26;;;;;;;8.93;3.70;;;;;;;14.97;49.83;100897.63;5029996;28;20115;-77
2023/05/19 07:44:52;;;;;;;6.25;3.60;;;;;;;15.09;49.83;100909.34;5030253;28;20057;-78
2023/05/19 07:47:19;;;;;;;6.80;3.50;;;;;;;15.19;50.32;100899.91;5029671;28;20058;-77
2023/05/19 07:49:46;;;;;;;9.20;4.00;;;;;;;15.30;50.02;100895.78;5030533;28;20456;-77
2023/05/19 07:52:17;;;;;;;6.97;3.50;;;;;;;15.41;49.83;100890.69;5030202;28;20103;-77
2023/05/19 07:54:44;;;;;;;8.57;4.20;;;;;;;15.52;49.70;100889.19;5030408;28;20057;-77
2023/05/19 07:57:11;;;;;;;9.45;4.15;;;;;;;15.62;49.51;100899.16;5029657;28;20406;-78
2023/05/19 07:59:37;;;;;;;9.60;3.75;;;;;;;15.72;49.39;100893.28;5030515;28;20512;-77
2023/05/19 08:02:05;;;;;;;6.43;3.65;;;;;;;15.82;49.23;100883.84;5030190;28;20053;-77
2023/05/19 08:04:31;;;;;;;12.38;3.78;;;;;;;15.92;49.13;100886.75;5030454;28;20049;-77
2023/05/19 08:06:58;;;;;;;7.13;3.30;;;;;;;16.04;49.18;100892.31;5029302;28;20068;-77
2023/05/19 08:09:25;;;;;;;7.55;3.33;;;;;;;16.13;48.92;100883.75;5030149;28;20049;-77
2023/05/19 08:11:52;;;;;;;5.55;2.83;;;;;;;16.24;48.69;100886.63;5030064;28;20057;-77
2023/05/19 08:14:21;;;;;;;7.35;3.42;;;;;;;16.34;48.95;100883.38;5030429;28;20108;-77
2023/05/19 08:16:48;;;;;;;5.55;3.35;;;;;;;16.47;48.58;100888.75;5029607;28;20096;-77
2023/05/19 08:19:15;;;;;;;11.02;2.95;;;;;;;16.57;48.52;100886.34;5030020;28;20066;-77
2023/05/19 08:21:43;;;;;;;6.40;3.70;;;;;;;16.67;48.10;100877.69;5035282;28;20053;-77
2023/05/19 08:24:10;;;;;;;11.40;3.40;;;;;;;16.78;48.14;100879.66;5049465;28;20064;-77
2023/05/19 08:26:37;;;;;;;7.15;3.20;;;;;;;16.91;48.51;100874.38;5051930;28;20464;-77
2023/05/19 08:29:04;;;;;;;7.13;3.35;;;;;;;17.00;48.13;100872.91;5051716;28;20053;-77
2023/05/19 08:31:31;;;;;;;12.75;3.60;;;;;;;17.12;48.12;100873.94;5052956;28;20413;-77
2023/05/19 08:33:58;;;;;;;8.20;3.25;;;;;;;17.24;47.88;100872.28;5051680;28;20226;-78
2023/05/19 08:36:24;;;;;;;9.20;3.08;;;;;;;17.36;48.39;100864.41;5052770;28;20707;-77
2023/05/19 08:38:51;;;;;;;10.13;3.20;;;;;;;17.48;48.21;100863.56;5051436;28;20069;-77
2023/05/19 08:41:18;;;;;;;8.43;2.67;;;;;;;17.60;47.60;100859.19;5053012;28;20103;-77
2023/05/19 08:43:44;;;;;;;7.05;2.58;;;;;;;17.72;47.06;100860.19;5052769;28;20441;-78
2023/05/19 08:46:13;;;;;;;6.47;2.70;;;;;;;17.83;46.64;100859.44;5052447;28;20481;-77
2023/05/19 08:48:41;;;;;;;7.03;2.60;;;;;;;17.93;46.63;100860.47;5052676;28;20048;-78
2023/05/19 08:51:32;;;;;;;5.68;2.40;;;;;;;18.00;45.96;100852.91;5052375;28;20508;-77
2023/05/19 08:54:13;;;;;;;7.28;3.00;;;;;;;18.12;45.81;100850.34;5052488;28;20388;-77
2023/05/19 08:56:42;;;;;;;9.25;2.88;;;;;;;18.24;45.91;100846.78;5051968;28;20093;-77
2023/05/19 08:59:09;;;;;;;5.63;2.40;;;;;;;18.33;46.42;100848.81;5051525;28;20049;-77
2023/05/19 09:01:36;;;;;;;5.70;2.97;;;;;;;18.43;45.86;100842.81;5052094;28;20072;-77
2023/05/19 09:04:08;;;;;;;8.20;2.85;;;;;;;18.54;45.92;100844.69;5052486;28;20489;-77
2023/05/19 09:06:35;;;;;;;6.38;2.70;;;;;;;18.63;45.59;100833.34;5052066;28;20063;-77
2023/05/19 09:09:03;;;;;;;5.97;2.92;;;;;;;18.71;45.43;100833.63;5052530;28;20061;-78
2023/05/19 09:11:29;;;;;;;6.28;2.45;;;;;;;18.83;45.64;100842.50;5052360;28;20052;-77
2023/05/19 09:13:56;;;;;;;9.68;2.55;;;;;;;18.93;45.30;100832.00;5051917;28;20484;-77
2023/05/19 09:16:23;;;;;;;9.43;2.60;;;;;;;19.03;44.83;100824.16;5052488;28;20060;-77
2023/05/19 09:18:56;;;;;;;6.32;2.40;;;;;;;19.11;43.71;100824.44;5051983;28;20110;-77
2023/05/19 09:21:29;;;;;;;4.60;2.35;;;;;;;19.20;43.38;100827.38;5050952;28;20139;-77
2023/05/19 09:24:05;;;;;;;7.03;2.00;;;;;;;19.29;43.27;100834.72;5051749;28;20085;-77
2023/05/19 09:26:39;;;;;;;5.47;2.00;;;;;;;19.39;43.43;100821.47;5051847;28;20049;-77
2023/05/19 09:29:16;;;;;;;5.78;2.63;;;;;;;19.50;43.43;100832.19;5051896;28;20083;-77
2023/05/19 09:31:59;;;;;;;5.88;2.08;;;;;;;19.61;42.95;100819.78;5051947;28;20417;-77
2023/05/19 09:34:26;;;;;;;6.60;2.22;;;;;;;19.75;43.33;100816.03;5051736;28;20493;-78
2023/05/19 09:36:53;;;;;;;9.20;2.63;;;;;;;19.85;42.93;100816.16;5051432;28;20080;-78
2023/05/19 09:39:21;;;;;;;4.57;2.47;;;;;;;19.94;42.46;100820.78;5051480;28;20072;-77
2023/05/19 09:41:53;;;;;;;5.82;2.28;;;;;;;20.01;41.99;100821.16;5052170;28;20057;-77
2023/05/19 09:44:19;;;;;;;4.22;1.90;;;;;;;20.11;42.04;100814.09;5051878;28;20056;-78
2023/05/19 09:46:51;;;;;;;7.15;2.25;;;;;;;20.20;41.81;100815.19;5051208;28;20052;-77
2023/05/19 09:49:23;;;;;;;5.88;2.00;;;;;;;20.25;41.06;100804.97;5051460;28;20506;-77
2023/05/19 09:51:57;;;;;;;4.60;1.90;;;;;;;20.30;40.81;100805.44;5051618;28;20045;-77
2023/05/19 09:54:27;;;;;;;4.68;2.10;;;;;;;20.38;41.42;100807.50;5051525;28;20084;-77
2023/05/19 09:57:05;;;;;;;6.75;1.77;;;;;;;20.39;40.19;100803.84;5051161;28;20053;-77
2023/05/19 09:59:34;;;;;;;7.80;2.00;;;;;;;20.50;41.08;100804.78;5051341;28;20139;-77
2023/05/19 10:02:01;;;;;;;7.05;1.95;;;;;;;20.54;40.30;100807.06;5051121;28;20067;-77
2023/05/19 10:04:29;;;;;;;6.90;1.95;;;;;;;20.58;40.14;100796.97;5051620;28;20564;-77
2023/05/19 10:07:04;;;;;;;5.45;1.83;;;;;;;20.62;39.75;100803.75;5050924;28;20135;-77
2023/05/19 10:09:32;;;;;;;4.88;1.90;;;;;;;20.67;40.19;100798.03;5051263;28;20065;-77
2023/05/19 10:11:59;;;;;;;7.57;2.60;;;;;;;20.70;40.11;100801.28;5050090;28;20053;-77
2023/05/19 10:14:28;;;;;;;5.07;1.80;;;;;;;20.76;40.33;100797.25;5051076;28;20067;-77
2023/05/19 10:16:57;;;;;;;4.80;2.00;;;;;;;20.82;39.70;100802.09;5051078;28;20052;-77
2023/05/19 10:19:25;;;;;;;7.32;1.95;;;;;;;20.87;38.86;100807.09;5050993;28;20049;-77
2023/05/19 10:21:53;;;;;;;5.10;2.00;;;;;;;20.89;39.29;100798.94;5051158;28;20056;-77
2023/05/19 10:24:20;;;;;;;4.88;1.90;;;;;;;20.88;38.78;100795.41;5050643;28;20532;-77
2023/05/19 10:26:53;;;;;;;5.18;2.17;;;;;;;20.89;38.46;100791.75;5050873;28;20067;-77
2023/05/19 10:29:33;;;;;;;5.32;1.77;;;;;;;20.90;38.63;100800.63;5050988;28;20069;-77
2023/05/19 10:32:06;;;;;;;5.63;1.67;;;;;;;20.96;38.22;100794.75;5051201;28;20057;-77
2023/05/19 10:34:55;;;;;;;4.28;1.80;;;;;;;20.98;37.59;100798.16;5049589;28;20490;-77
2023/05/19 10:37:49;;;;;;;4.32;1.85;;;;;;;21.03;39.05;100790.59;5042080;28;20088;-78
2023/05/19 10:40:24;;;;;;;;;;;;;;;21.16;39.80;100779.66;5048034;28;20075;-77
2023/05/19 10:43:19;;;;;;;4.18;1.65;;;;;;;21.37;39.08;100780.63;5067013;28;19971;-78
2023/05/19 10:45:53;;;;;;;4.82;1.77;;;;;;;21.67;39.37;100766.38;5048417;28;20053;-77
2023/05/19 10:48:21;;;;;;;2.97;1.60;;;;;;;22.03;39.66;100765.94;5047453;28;20053;-78
2023/05/19 10:50:51;;;;;;;4.03;1.92;;;;;;;22.42;39.45;100759.78;5030560;28;20537;-78
2023/05/19 10:53:21;;;;;;;5.20;1.40;;;;;;;22.88;39.53;100753.84;5033996;28;20048;-78
2023/05/19 10:55:54;;;;;;;3.45;1.58;;;;;;;23.41;37.37;100749.75;5049828;28;20520;-78
2023/05/19 10:58:44;;;;;;;2.85;1.55;;;;;;;23.93;37.51;100753.75;5049738;28;20056;-78
2023/05/19 11:01:15;;;;;;;3.92;1.73;;;;;;;24.40;35.58;100757.28;5044525;28;20468;-78
2023/05/19 11:03:52;;;;;;;2.70;1.48;;;;;;;24.69;35.15;100755.31;5049921;28;20053;-78
2023/05/19 11:06:28;;;;;;;3.42;1.60;;;;;;;25.00;34.88;100752.22;5046410;28;20099;-77
2023/05/19 11:09:15;;;;;;;3.55;1.65;;;;;;;25.31;34.54;100750.88;5030017;28;20053;-78
2023/05/19 11:11:47;;;;;;;3.20;1.60;;;;;;;25.52;33.54;100763.13;5030387;28;20069;-78
2023/05/19 11:14:20;;;;;;;4.70;1.40;;;;;;;25.70;34.33;100763.91;5030279;28;20111;-77
2023/05/19 11:16:48;;;;;;;3.80;2.00;;;;;;;25.89;33.34;100754.69;5029786;28;20050;-77
2023/05/19 11:19:27;;;;;;;4.35;1.50;;;;;;;25.89;32.36;100757.41;5030026;28;20065;-77
2023/05/19 11:21:55;;;;;;;3.97;1.52;;;;;;;25.84;31.74;100753.50;5030194;28;20568;-77
2023/05/19 11:24:43;;;;;;;4.03;1.90;;;;;;;25.56;32.28;100751.88;5041141;28;20052;-77
2023/05/19 11:27:37;;;;;;;3.67;1.60;;;;;;;25.46;34.13;100748.44;5048160;28;20144;-77
2023/05/19 11:30:13;;;;;;;6.13;2.10;;;;;;;25.58;32.44;100747.19;5046815;28;20088;-77
2023/05/19 11:32:41;;;;;;;4.05;1.55;;;;;;;25.80;33.44;100746.75;5050152;28;20059;-77
2023/05/19 11:35:09;;;;;;;3.92;1.95;;;;;;;25.98;33.02;100741.22;5049589;28;20147;-77
2023/05/19 11:37:36;;;;;;;5.93;1.60;;;;;;;26.23;32.85;100743.94;5049586;28;20060;-77